Aérodrome :
LOGIN :

S'inscrire | Disclaimer

   EN    FR    IT 

 










Légende :    VFR   VFR Marginal   IFR   IFR Intensif   IFR Très Intensif
Visi : 
Plafond : 
>= 8 km
>= 3000ft
5 à 8 km
1000 à 3000 ft
1500m à 5 km
500 à 1000 ft
800 à 1500m
200 à 500 ft
< 800m
< 200 ft
Symboles :   Orages  Brouillard  Fortes neiges  Fortes précipitations  Vent > 20 kt
SIGMETs :   Divers  Orages  Givrage  Turbulence  Onde Orograph.  Cendres Volcan.






- Altitude de l'aérodrome : 148 ft
- Code IATA : KHE


UKOH - Chernobayevka

DERNIER METAR :
  • 221500Z 24007MPS 200V270 CAVOK 05/M01 Q1012 R21/CLRD65 NOSIG

METARs EXPIRÉS :
  • 221430Z 25008MPS 9999 SCT043 07/M03 Q1013 R21/CLRD65 NOSIG
  • 221400Z 25009MPS 9999 SCT066 07/M04 Q1013 R21/CLRD65 NOSIG
  • 221330Z 28007MPS CAVOK 09/M08 Q1014 R21/CLRD65 NOSIG
  • 221300Z 29009MPS CAVOK 09/M08 Q1014 R21/CLRD65 NOSIG
  • 221230Z 29008G14MPS 250V310 CAVOK 08/M04 Q1015 R21/CLRD65 NOSIG
  • 221200Z 29008MPS CAVOK 07/M05 Q1015 R21/CLRD65 NOSIG

TAF TAF UKOH
Valide du 22 à 15h jusqu'au 23 à 00h UTC


221402Z 2215/2224 28008G16MPS 9999 SCT007 BKN025CB TX05/2215Z TN01/2224Z



MET'MAP, la Météo Aéronautique d'un coup d'oeil ! - Copyright ORBIFLY Décembre 2007 - Disclaimer

ORBIFLY MET'MAP TEAM :

Programmation & Développement : Alexandra Zaïnal
Sur une idée originale de : Baudouin d'Aumeries
Assistance à la programmation : Marc-Olivier Méhu
Soutien technique & logistique : Manuel Goepfert

Contact : metmap@orbifly.com




SOURCES & CREDITS :

   NOAA